Mattituck, NY (11952)

3:48 PM EDT on March 28, 2017 (GMT -0400)
Laurel on the Bay | | Change Station

Elev 23 ft 40.97 °N, 72.54 °W | Updated 11 seconds ago

Rain
Rain
39.5 °F
Feels Like 31 °F
N
15.0
Wind Variable Wind from East

Today
High -- | Low -- °F
--% Chance of Precip.
Yesterday
High -- | Low -- °F
Precip. -- in
Pressure 29.94 in
Visibility 10.0 miles
Clouds Overcast 500 ft
Windchill 31 °F
Dew Point 39 °F
Humidity 98%
Rainfall 0.48 in
Snow Depth Not available.
6:39 AM 7:11 PM
New Moon, 1% visible
METAR KFOK 281853Z 08006KT 10SM -RA OVC005 06/04 A2994 RMK AO2 SLP139 P0003 T00560044
Pressure 29.94 in
Visibility 10.0 miles
Clouds Overcast 500 ft
Windchill 31 °F
Dew Point 39 °F
Humidity 98%
Rainfall 0.48 in
Snow Depth Not available.
6:39 AM 7:11 PM
New Moon, 1% visible
METAR KFOK 281853Z 08006KT 10SM -RA OVC005 06/04 A2994 RMK AO2 SLP139 P0003 T00560044

Get Severe Weather Alerts

Thanks for signing up!

Be on the lookout for a verification email in your inbox.

You'll start receiving the daily forecast at 8 AM.

×

10-Day Weather Forecast

Almanac

Astronomy

Mar. 28, 2017 Rise Set
Actual Time
Civil Twilight
Nautical Twilight
Astronomical Twilight
Moon
Length of Visible Light
Length of Day
Tomorrow will be .
, % of the Moon is Illuminated

Today's Extremes

State Highs State Lows

Community

WunderPhotos

Upload Photos

1,962,540 photos uploaded!

WunderBlog® & News

Nearby

Air Quality

  Air Quality AQ Index Pollutant
Not available.

Snow Depth

Station Depth Elevation

Earthquake Activity

City Distance Mag. Time & Date
Minimum magnitude displayed is 2.5.

Earthquake Activity

City Distance Mag. Time & Date
Minimum magnitude displayed is 2.5.

Coastal Water Temperatures

Place Temperature

Stations

Nearby Weather Stations

Station Location Temp. Windchill Dew Point Humidity Wind Precip. Elev Updated Type
                   

Watches & Warnings

There are currently no watches in effect.